Burrton, Kansas
Current Conditions -  °F | °C
As of 8:23 AM on Thursday 23 Oct 2014 (Local Time) from KHUT Reporting Station
Overcast Overcast  
Wind Chill: 16°   Ceiling: 3300
Heat Index: 16°   Visibility: 8mi
Dew Point: 14°   Wind: 0mph
Humidity: 87%   Direction: NA
Pressure: 30.09"   Gusts: NA
Location:  38.02°N, 97.67°W
Report Text: KHUT 231323Z 00000KT 8SM SCT025 OVC033 16/14 A3009 RMK AO2 T01610139
Loading
Personal Weather Stations






























Interactive Weather Map
Tropical Storm Tracking
New forecast layout! Learn more

10-Day Weather Forecast

Advertisements
Track Severe Weather on mobile